sensor_id;sensor_type;location;lat;lon;timestamp;P1;durP1;ratioP1;P2;durP2;ratioP2
6757;SDS011;3416;53.074;8.822;2022-12-20T00:01:40;12.15;;;7.07;;
6757;SDS011;3416;53.074;8.822;2022-12-20T00:04:08;7.80;;;7.00;;
6757;SDS011;3416;53.074;8.822;2022-12-20T00:06:36;7.13;;;6.40;;
6757;SDS011;3416;53.074;8.822;2022-12-20T00:09:07;12.77;;;8.65;;
6757;SDS011;3416;53.074;8.822;2022-12-20T00:11:37;9.50;;;6.93;;
6757;SDS011;3416;53.074;8.822;2022-12-20T00:14:05;10.82;;;7.10;;
6757;SDS011;3416;53.074;8.822;2022-12-20T00:16:32;10.20;;;8.30;;
6757;SDS011;3416;53.074;8.822;2022-12-20T00:19:01;9.23;;;7.13;;
6757;SDS011;3416;53.074;8.822;2022-12-20T00:21:30;8.95;;;6.75;;
6757;SDS011;3416;53.074;8.822;2022-12-20T00:23:58;7.80;;;6.13;;
6757;SDS011;3416;53.074;8.822;2022-12-20T00:26:27;9.80;;;7.03;;
6757;SDS011;3416;53.074;8.822;2022-12-20T00:28:56;8.82;;;6.60;;
6757;SDS011;3416;53.074;8.822;2022-12-20T00:31:24;8.55;;;6.57;;
6757;SDS011;3416;53.074;8.822;2022-12-20T00:33:52;6.45;;;5.85;;
6757;SDS011;3416;53.074;8.822;2022-12-20T00:36:21;10.55;;;7.60;;
6757;SDS011;3416;53.074;8.822;2022-12-20T00:38:50;8.38;;;6.72;;
6757;SDS011;3416;53.074;8.822;2022-12-20T00:41:19;8.38;;;7.53;;
6757;SDS011;3416;53.074;8.822;2022-12-20T00:43:48;7.78;;;6.68;;
6757;SDS011;3416;53.074;8.822;2022-12-20T00:46:15;7.28;;;5.70;;
6757;SDS011;3416;53.074;8.822;2022-12-20T00:48:43;10.45;;;6.40;;
6757;SDS011;3416;53.074;8.822;2022-12-20T00:51:11;11.00;;;6.88;;
6757;SDS011;3416;53.074;8.822;2022-12-20T00:53:40;12.40;;;6.47;;
6757;SDS011;3416;53.074;8.822;2022-12-20T00:56:08;6.18;;;5.55;;
6757;SDS011;3416;53.074;8.822;2022-12-20T00:58:37;8.68;;;6.05;;
6757;SDS011;3416;53.074;8.822;2022-12-20T01:01:14;11.13;;;7.47;;
6757;SDS011;3416;53.074;8.822;2022-12-20T01:03:43;7.00;;;6.22;;
6757;SDS011;3416;53.074;8.822;2022-12-20T01:06:11;7.15;;;5.95;;
6757;SDS011;3416;53.074;8.822;2022-12-20T01:08:37;7.03;;;6.28;;
6757;SDS011;3416;53.074;8.822;2022-12-20T01:11:06;12.05;;;6.70;;
6757;SDS011;3416;53.074;8.822;2022-12-20T01:13:35;12.43;;;8.25;;
6757;SDS011;3416;53.074;8.822;2022-12-20T01:16:04;10.82;;;6.03;;
6757;SDS011;3416;53.074;8.822;2022-12-20T01:18:34;6.85;;;6.25;;
6757;SDS011;3416;53.074;8.822;2022-12-20T01:21:01;6.38;;;5.75;;
6757;SDS011;3416;53.074;8.822;2022-12-20T01:23:29;12.23;;;6.47;;
6757;SDS011;3416;53.074;8.822;2022-12-20T01:25:56;7.30;;;6.60;;
6757;SDS011;3416;53.074;8.822;2022-12-20T01:28:24;6.22;;;5.60;;
6757;SDS011;3416;53.074;8.822;2022-12-20T01:30:51;7.88;;;6.10;;
6757;SDS011;3416;53.074;8.822;2022-12-20T01:33:18;7.20;;;5.93;;
6757;SDS011;3416;53.074;8.822;2022-12-20T01:35:54;8.25;;;5.68;;
6757;SDS011;3416;53.074;8.822;2022-12-20T01:38:22;6.32;;;5.72;;
6757;SDS011;3416;53.074;8.822;2022-12-20T01:40:49;7.97;;;6.40;;
6757;SDS011;3416;53.074;8.822;2022-12-20T01:43:17;7.68;;;6.78;;
6757;SDS011;3416;53.074;8.822;2022-12-20T01:45:44;8.15;;;6.10;;
6757;SDS011;3416;53.074;8.822;2022-12-20T01:48:12;9.93;;;6.57;;
6757;SDS011;3416;53.074;8.822;2022-12-20T01:50:41;9.13;;;6.85;;
6757;SDS011;3416;53.074;8.822;2022-12-20T01:53:10;6.35;;;5.80;;
6757;SDS011;3416;53.074;8.822;2022-12-20T01:55:37;7.47;;;5.45;;
6757;SDS011;3416;53.074;8.822;2022-12-20T01:58:05;8.75;;;6.72;;
6757;SDS011;3416;53.074;8.822;2022-12-20T02:00:35;8.50;;;6.30;;
6757;SDS011;3416;53.074;8.822;2022-12-20T02:03:03;8.27;;;5.70;;
6757;SDS011;3416;53.074;8.822;2022-12-20T02:05:33;9.65;;;6.80;;
6757;SDS011;3416;53.074;8.822;2022-12-20T02:08:01;7.63;;;6.45;;
6757;SDS011;3416;53.074;8.822;2022-12-20T02:10:33;7.32;;;5.85;;
6757;SDS011;3416;53.074;8.822;2022-12-20T02:13:10;14.23;;;7.05;;
6757;SDS011;3416;53.074;8.822;2022-12-20T02:15:46;6.93;;;6.22;;
6757;SDS011;3416;53.074;8.822;2022-12-20T02:18:20;7.00;;;5.63;;
6757;SDS011;3416;53.074;8.822;2022-12-20T02:20:54;8.85;;;6.15;;
6757;SDS011;3416;53.074;8.822;2022-12-20T02:26:57;6.13;;;5.55;;
6757;SDS011;3416;53.074;8.822;2022-12-20T02:30:06;7.13;;;5.82;;
6757;SDS011;3416;53.074;8.822;2022-12-20T02:32:36;12.00;;;6.93;;
6757;SDS011;3416;53.074;8.822;2022-12-20T02:35:07;9.20;;;6.15;;
6757;SDS011;3416;53.074;8.822;2022-12-20T02:37:35;9.88;;;6.30;;
6757;SDS011;3416;53.074;8.822;2022-12-20T02:40:02;8.43;;;6.00;;
6757;SDS011;3416;53.074;8.822;2022-12-20T02:42:31;9.95;;;9.05;;
6757;SDS011;3416;53.074;8.822;2022-12-20T02:45:00;6.13;;;5.43;;
6757;SDS011;3416;53.074;8.822;2022-12-20T02:47:44;8.55;;;5.43;;
6757;SDS011;3416;53.074;8.822;2022-12-20T02:50:15;6.07;;;5.40;;
6757;SDS011;3416;53.074;8.822;2022-12-20T02:52:45;8.45;;;6.95;;
6757;SDS011;3416;53.074;8.822;2022-12-20T02:55:12;7.03;;;5.38;;
6757;SDS011;3416;53.074;8.822;2022-12-20T02:57:41;5.80;;;4.75;;
6757;SDS011;3416;53.074;8.822;2022-12-20T03:00:14;6.97;;;5.88;;
6757;SDS011;3416;53.074;8.822;2022-12-20T03:02:45;10.32;;;6.07;;
6757;SDS011;3416;53.074;8.822;2022-12-20T03:05:31;8.30;;;6.38;;
6757;SDS011;3416;53.074;8.822;2022-12-20T03:08:00;7.00;;;5.18;;
6757;SDS011;3416;53.074;8.822;2022-12-20T03:10:27;7.38;;;5.53;;
6757;SDS011;3416;53.074;8.822;2022-12-20T03:12:54;7.88;;;6.00;;
6757;SDS011;3416;53.074;8.822;2022-12-20T03:15:21;7.15;;;5.15;;
6757;SDS011;3416;53.074;8.822;2022-12-20T03:17:49;5.63;;;5.00;;
6757;SDS011;3416;53.074;8.822;2022-12-20T03:20:16;10.43;;;7.05;;
6757;SDS011;3416;53.074;8.822;2022-12-20T03:22:43;7.90;;;6.38;;
6757;SDS011;3416;53.074;8.822;2022-12-20T03:25:10;6.50;;;5.85;;
6757;SDS011;3416;53.074;8.822;2022-12-20T03:27:37;9.07;;;5.68;;
6757;SDS011;3416;53.074;8.822;2022-12-20T03:30:04;6.75;;;6.00;;
6757;SDS011;3416;53.074;8.822;2022-12-20T03:32:32;5.80;;;5.20;;
6757;SDS011;3416;53.074;8.822;2022-12-20T03:35:00;5.80;;;4.90;;
6757;SDS011;3416;53.074;8.822;2022-12-20T03:37:27;5.43;;;4.05;;
6757;SDS011;3416;53.074;8.822;2022-12-20T03:39:54;8.75;;;5.20;;
6757;SDS011;3416;53.074;8.822;2022-12-20T03:42:21;7.75;;;6.13;;
6757;SDS011;3416;53.074;8.822;2022-12-20T03:44:48;9.50;;;5.65;;
6757;SDS011;3416;53.074;8.822;2022-12-20T03:47:15;11.02;;;5.93;;
6757;SDS011;3416;53.074;8.822;2022-12-20T03:49:42;5.10;;;4.00;;
6757;SDS011;3416;53.074;8.822;2022-12-20T03:52:10;5.90;;;4.57;;
6757;SDS011;3416;53.074;8.822;2022-12-20T03:54:37;8.73;;;5.72;;
6757;SDS011;3416;53.074;8.822;2022-12-20T03:57:04;7.15;;;5.28;;
6757;SDS011;3416;53.074;8.822;2022-12-20T03:59:31;6.57;;;4.70;;
6757;SDS011;3416;53.074;8.822;2022-12-20T04:01:59;6.50;;;4.82;;
6757;SDS011;3416;53.074;8.822;2022-12-20T04:04:27;5.57;;;5.05;;
6757;SDS011;3416;53.074;8.822;2022-12-20T04:06:54;9.18;;;5.20;;
6757;SDS011;3416;53.074;8.822;2022-12-20T04:09:22;10.27;;;4.75;;
6757;SDS011;3416;53.074;8.822;2022-12-20T04:11:49;7.07;;;5.68;;
6757;SDS011;3416;53.074;8.822;2022-12-20T04:14:16;6.03;;;4.65;;
6757;SDS011;3416;53.074;8.822;2022-12-20T04:16:43;6.15;;;4.65;;
6757;SDS011;3416;53.074;8.822;2022-12-20T04:19:10;7.10;;;4.85;;
6757;SDS011;3416;53.074;8.822;2022-12-20T04:21:37;4.32;;;3.92;;
6757;SDS011;3416;53.074;8.822;2022-12-20T04:24:05;8.77;;;5.22;;
6757;SDS011;3416;53.074;8.822;2022-12-20T04:26:33;5.90;;;4.90;;
6757;SDS011;3416;53.074;8.822;2022-12-20T04:29:00;6.20;;;4.75;;
6757;SDS011;3416;53.074;8.822;2022-12-20T04:31:27;7.47;;;5.32;;
6757;SDS011;3416;53.074;8.822;2022-12-20T04:33:54;9.10;;;4.90;;
6757;SDS011;3416;53.074;8.822;2022-12-20T04:36:20;5.28;;;4.68;;
6757;SDS011;3416;53.074;8.822;2022-12-20T04:38:47;7.45;;;4.88;;
6757;SDS011;3416;53.074;8.822;2022-12-20T04:41:14;7.63;;;4.85;;
6757;SDS011;3416;53.074;8.822;2022-12-20T04:43:49;10.18;;;5.25;;
6757;SDS011;3416;53.074;8.822;2022-12-20T04:46:16;6.82;;;5.22;;
6757;SDS011;3416;53.074;8.822;2022-12-20T04:48:44;5.95;;;4.13;;
6757;SDS011;3416;53.074;8.822;2022-12-20T04:51:11;5.30;;;4.80;;
6757;SDS011;3416;53.074;8.822;2022-12-20T04:53:38;7.28;;;4.80;;
6757;SDS011;3416;53.074;8.822;2022-12-20T04:56:13;5.72;;;4.28;;
6757;SDS011;3416;53.074;8.822;2022-12-20T04:58:42;10.18;;;4.32;;
6757;SDS011;3416;53.074;8.822;2022-12-20T05:01:11;4.82;;;4.35;;
6757;SDS011;3416;53.074;8.822;2022-12-20T05:03:38;4.78;;;4.32;;
6757;SDS011;3416;53.074;8.822;2022-12-20T05:06:05;7.95;;;4.45;;
6757;SDS011;3416;53.074;8.822;2022-12-20T05:08:33;6.68;;;4.90;;
6757;SDS011;3416;53.074;8.822;2022-12-20T05:11:00;4.88;;;4.32;;
6757;SDS011;3416;53.074;8.822;2022-12-20T05:13:27;7.50;;;5.05;;
6757;SDS011;3416;53.074;8.822;2022-12-20T05:15:55;5.80;;;5.20;;
6757;SDS011;3416;53.074;8.822;2022-12-20T05:18:27;5.47;;;4.97;;
6757;SDS011;3416;53.074;8.822;2022-12-20T05:20:54;7.20;;;4.90;;
6757;SDS011;3416;53.074;8.822;2022-12-20T05:23:39;6.93;;;5.53;;
6757;SDS011;3416;53.074;8.822;2022-12-20T05:26:23;5.00;;;4.50;;
6757;SDS011;3416;53.074;8.822;2022-12-20T05:28:51;5.82;;;5.22;;
6757;SDS011;3416;53.074;8.822;2022-12-20T05:31:18;9.23;;;5.25;;
6757;SDS011;3416;53.074;8.822;2022-12-20T05:33:47;5.82;;;4.72;;
6757;SDS011;3416;53.074;8.822;2022-12-20T05:36:14;5.03;;;4.53;;
6757;SDS011;3416;53.074;8.822;2022-12-20T05:38:40;6.65;;;5.60;;
6757;SDS011;3416;53.074;8.822;2022-12-20T05:41:07;9.98;;;5.18;;
6757;SDS011;3416;53.074;8.822;2022-12-20T05:43:34;5.57;;;4.57;;
6757;SDS011;3416;53.074;8.822;2022-12-20T05:46:01;5.63;;;4.72;;
6757;SDS011;3416;53.074;8.822;2022-12-20T05:48:28;5.47;;;4.97;;
6757;SDS011;3416;53.074;8.822;2022-12-20T05:50:57;4.97;;;4.55;;
6757;SDS011;3416;53.074;8.822;2022-12-20T05:53:24;8.07;;;6.10;;
6757;SDS011;3416;53.074;8.822;2022-12-20T05:55:51;7.47;;;5.60;;
6757;SDS011;3416;53.074;8.822;2022-12-20T05:58:19;6.10;;;4.88;;
6757;SDS011;3416;53.074;8.822;2022-12-20T06:00:46;6.13;;;5.53;;
6757;SDS011;3416;53.074;8.822;2022-12-20T06:03:13;6.88;;;5.93;;
6757;SDS011;3416;53.074;8.822;2022-12-20T06:05:40;9.25;;;5.60;;
6757;SDS011;3416;53.074;8.822;2022-12-20T06:08:10;6.20;;;5.05;;
6757;SDS011;3416;53.074;8.822;2022-12-20T06:10:38;7.30;;;6.50;;
6757;SDS011;3416;53.074;8.822;2022-12-20T06:13:06;6.22;;;5.63;;
6757;SDS011;3416;53.074;8.822;2022-12-20T06:15:35;7.25;;;6.53;;
6757;SDS011;3416;53.074;8.822;2022-12-20T06:18:02;6.95;;;6.28;;
6757;SDS011;3416;53.074;8.822;2022-12-20T06:20:30;7.97;;;7.15;;
6757;SDS011;3416;53.074;8.822;2022-12-20T06:22:57;6.65;;;5.90;;
6757;SDS011;3416;53.074;8.822;2022-12-20T06:25:25;7.68;;;6.88;;
6757;SDS011;3416;53.074;8.822;2022-12-20T06:27:52;9.57;;;6.43;;
6757;SDS011;3416;53.074;8.822;2022-12-20T06:30:19;7.00;;;6.18;;
6757;SDS011;3416;53.074;8.822;2022-12-20T06:32:46;9.98;;;5.95;;
6757;SDS011;3416;53.074;8.822;2022-12-20T06:35:13;7.93;;;7.03;;
6757;SDS011;3416;53.074;8.822;2022-12-20T06:37:39;6.80;;;6.13;;
6757;SDS011;3416;53.074;8.822;2022-12-20T06:40:07;7.75;;;6.95;;
6757;SDS011;3416;53.074;8.822;2022-12-20T06:42:36;10.90;;;7.03;;
6757;SDS011;3416;53.074;8.822;2022-12-20T06:45:03;6.88;;;6.00;;
6757;SDS011;3416;53.074;8.822;2022-12-20T06:47:31;9.35;;;5.63;;
6757;SDS011;3416;53.074;8.822;2022-12-20T06:49:57;9.00;;;6.47;;
6757;SDS011;3416;53.074;8.822;2022-12-20T06:52:24;6.75;;;5.50;;
6757;SDS011;3416;53.074;8.822;2022-12-20T06:54:51;7.30;;;5.75;;
6757;SDS011;3416;53.074;8.822;2022-12-20T06:57:18;9.98;;;6.35;;
6757;SDS011;3416;53.074;8.822;2022-12-20T06:59:46;8.48;;;5.80;;
6757;SDS011;3416;53.074;8.822;2022-12-20T07:02:13;8.15;;;6.25;;
6757;SDS011;3416;53.074;8.822;2022-12-20T07:04:40;9.90;;;6.70;;
6757;SDS011;3416;53.074;8.822;2022-12-20T07:07:07;5.60;;;5.07;;
6757;SDS011;3416;53.074;8.822;2022-12-20T07:09:34;8.73;;;6.70;;
6757;SDS011;3416;53.074;8.822;2022-12-20T07:12:02;6.18;;;5.57;;
6757;SDS011;3416;53.074;8.822;2022-12-20T07:14:29;7.55;;;5.88;;
6757;SDS011;3416;53.074;8.822;2022-12-20T07:16:57;6.28;;;5.10;;
6757;SDS011;3416;53.074;8.822;2022-12-20T07:19:24;7.60;;;5.72;;
6757;SDS011;3416;53.074;8.822;2022-12-20T07:21:51;8.63;;;5.20;;
6757;SDS011;3416;53.074;8.822;2022-12-20T07:24:18;7.15;;;5.80;;
6757;SDS011;3416;53.074;8.822;2022-12-20T07:26:45;8.68;;;5.50;;
6757;SDS011;3416;53.074;8.822;2022-12-20T07:29:12;6.00;;;5.47;;
6757;SDS011;3416;53.074;8.822;2022-12-20T07:31:39;6.82;;;5.65;;
6757;SDS011;3416;53.074;8.822;2022-12-20T07:34:07;7.80;;;5.30;;
6757;SDS011;3416;53.074;8.822;2022-12-20T07:36:34;6.90;;;5.63;;
6757;SDS011;3416;53.074;8.822;2022-12-20T07:39:01;8.82;;;5.43;;
6757;SDS011;3416;53.074;8.822;2022-12-20T07:41:28;6.20;;;4.53;;
6757;SDS011;3416;53.074;8.822;2022-12-20T07:43:55;7.43;;;4.65;;
6757;SDS011;3416;53.074;8.822;2022-12-20T07:46:23;5.53;;;4.70;;
6757;SDS011;3416;53.074;8.822;2022-12-20T07:48:50;7.28;;;4.20;;
6757;SDS011;3416;53.074;8.822;2022-12-20T07:51:20;9.85;;;5.40;;
6757;SDS011;3416;53.074;8.822;2022-12-20T07:53:51;7.90;;;6.20;;
6757;SDS011;3416;53.074;8.822;2022-12-20T07:56:24;6.05;;;5.30;;
6757;SDS011;3416;53.074;8.822;2022-12-20T07:58:52;7.43;;;5.25;;
6757;SDS011;3416;53.074;8.822;2022-12-20T08:01:22;6.60;;;4.85;;
6757;SDS011;3416;53.074;8.822;2022-12-20T08:03:51;5.90;;;4.97;;
6757;SDS011;3416;53.074;8.822;2022-12-20T08:06:23;5.63;;;4.70;;
6757;SDS011;3416;53.074;8.822;2022-12-20T08:08:52;8.23;;;5.32;;
6757;SDS011;3416;53.074;8.822;2022-12-20T08:11:22;7.28;;;5.18;;
6757;SDS011;3416;53.074;8.822;2022-12-20T08:13:51;7.30;;;5.45;;
6757;SDS011;3416;53.074;8.822;2022-12-20T08:16:18;5.82;;;5.22;;
6757;SDS011;3416;53.074;8.822;2022-12-20T08:18:45;6.60;;;5.35;;
6757;SDS011;3416;53.074;8.822;2022-12-20T08:21:12;6.47;;;5.03;;
6757;SDS011;3416;53.074;8.822;2022-12-20T08:23:40;6.30;;;5.70;;
6757;SDS011;3416;53.074;8.822;2022-12-20T08:26:07;5.40;;;4.85;;
6757;SDS011;3416;53.074;8.822;2022-12-20T08:28:34;6.07;;;5.47;;
6757;SDS011;3416;53.074;8.822;2022-12-20T08:31:01;6.53;;;4.95;;
6757;SDS011;3416;53.074;8.822;2022-12-20T08:33:29;10.10;;;5.40;;
6757;SDS011;3416;53.074;8.822;2022-12-20T08:35:57;9.82;;;6.18;;
6757;SDS011;3416;53.074;8.822;2022-12-20T08:38:25;6.07;;;5.07;;
6757;SDS011;3416;53.074;8.822;2022-12-20T08:40:54;6.50;;;5.88;;
6757;SDS011;3416;53.074;8.822;2022-12-20T08:43:20;6.07;;;5.35;;
6757;SDS011;3416;53.074;8.822;2022-12-20T08:45:51;6.85;;;6.13;;
6757;SDS011;3416;53.074;8.822;2022-12-20T08:48:19;7.15;;;6.05;;
6757;SDS011;3416;53.074;8.822;2022-12-20T08:50:46;5.47;;;4.75;;
6757;SDS011;3416;53.074;8.822;2022-12-20T08:53:18;5.45;;;4.93;;
6757;SDS011;3416;53.074;8.822;2022-12-20T08:55:45;9.15;;;5.20;;
6757;SDS011;3416;53.074;8.822;2022-12-20T08:58:13;5.88;;;4.57;;
6757;SDS011;3416;53.074;8.822;2022-12-20T09:00:40;5.78;;;4.57;;
6757;SDS011;3416;53.074;8.822;2022-12-20T09:03:07;5.95;;;4.88;;
6757;SDS011;3416;53.074;8.822;2022-12-20T09:05:35;7.55;;;4.68;;
6757;SDS011;3416;53.074;8.822;2022-12-20T09:08:08;7.45;;;4.80;;
6757;SDS011;3416;53.074;8.822;2022-12-20T09:10:35;6.38;;;5.78;;
6757;SDS011;3416;53.074;8.822;2022-12-20T09:13:04;7.55;;;5.18;;
6757;SDS011;3416;53.074;8.822;2022-12-20T09:15:33;8.43;;;5.10;;
6757;SDS011;3416;53.074;8.822;2022-12-20T09:18:01;6.53;;;4.85;;
6757;SDS011;3416;53.074;8.822;2022-12-20T09:20:28;6.03;;;4.70;;
6757;SDS011;3416;53.074;8.822;2022-12-20T09:22:56;7.00;;;4.78;;
6757;SDS011;3416;53.074;8.822;2022-12-20T09:25:24;5.90;;;5.15;;
6757;SDS011;3416;53.074;8.822;2022-12-20T09:27:51;7.25;;;4.72;;
6757;SDS011;3416;53.074;8.822;2022-12-20T09:30:19;6.55;;;5.85;;
6757;SDS011;3416;53.074;8.822;2022-12-20T09:32:47;11.60;;;4.55;;
6757;SDS011;3416;53.074;8.822;2022-12-20T09:35:14;5.85;;;4.30;;
6757;SDS011;3416;53.074;8.822;2022-12-20T09:37:41;6.82;;;4.75;;
6757;SDS011;3416;53.074;8.822;2022-12-20T09:40:09;6.45;;;5.38;;
6757;SDS011;3416;53.074;8.822;2022-12-20T09:42:42;7.88;;;5.72;;
6757;SDS011;3416;53.074;8.822;2022-12-20T09:45:11;7.03;;;5.00;;
6757;SDS011;3416;53.074;8.822;2022-12-20T09:47:48;7.57;;;4.88;;
6757;SDS011;3416;53.074;8.822;2022-12-20T09:50:16;8.75;;;5.00;;
6757;SDS011;3416;53.074;8.822;2022-12-20T09:52:52;8.20;;;5.32;;
6757;SDS011;3416;53.074;8.822;2022-12-20T09:55:29;4.65;;;4.07;;
6757;SDS011;3416;53.074;8.822;2022-12-20T09:58:04;5.28;;;4.78;;
6757;SDS011;3416;53.074;8.822;2022-12-20T10:00:46;9.45;;;4.53;;
6757;SDS011;3416;53.074;8.822;2022-12-20T10:03:18;6.80;;;3.85;;
6757;SDS011;3416;53.074;8.822;2022-12-20T10:05:49;8.40;;;4.60;;
6757;SDS011;3416;53.074;8.822;2022-12-20T10:08:22;6.90;;;6.07;;
6757;SDS011;3416;53.074;8.822;2022-12-20T10:11:03;5.72;;;5.13;;
6757;SDS011;3416;53.074;8.822;2022-12-20T10:13:43;7.70;;;5.45;;
6757;SDS011;3416;53.074;8.822;2022-12-20T10:16:25;6.72;;;4.97;;
6757;SDS011;3416;53.074;8.822;2022-12-20T10:19:05;5.97;;;4.50;;
6757;SDS011;3416;53.074;8.822;2022-12-20T10:21:45;4.47;;;4.07;;
6757;SDS011;3416;53.074;8.822;2022-12-20T10:24:20;6.07;;;4.90;;
6757;SDS011;3416;53.074;8.822;2022-12-20T10:26:52;7.65;;;4.82;;
6757;SDS011;3416;53.074;8.822;2022-12-20T10:29:19;5.40;;;4.43;;
6757;SDS011;3416;53.074;8.822;2022-12-20T10:35:15;6.80;;;4.75;;
6757;SDS011;3416;53.074;8.822;2022-12-20T10:38:04;4.28;;;3.72;;
6757;SDS011;3416;53.074;8.822;2022-12-20T10:40:37;6.43;;;4.72;;
6757;SDS011;3416;53.074;8.822;2022-12-20T10:46:17;10.13;;;5.65;;
6757;SDS011;3416;53.074;8.822;2022-12-20T10:48:45;6.47;;;5.00;;
6757;SDS011;3416;53.074;8.822;2022-12-20T10:51:15;5.18;;;4.68;;
6757;SDS011;3416;53.074;8.822;2022-12-20T10:53:50;5.63;;;4.10;;
6757;SDS011;3416;53.074;8.822;2022-12-20T10:56:20;5.60;;;4.63;;
6757;SDS011;3416;53.074;8.822;2022-12-20T10:58:52;5.22;;;4.28;;
6757;SDS011;3416;53.074;8.822;2022-12-20T11:01:23;5.18;;;4.53;;
6757;SDS011;3416;53.074;8.822;2022-12-20T11:03:55;5.70;;;4.57;;
6757;SDS011;3416;53.074;8.822;2022-12-20T11:06:26;7.15;;;5.30;;
6757;SDS011;3416;53.074;8.822;2022-12-20T11:12:00;5.90;;;4.53;;
6757;SDS011;3416;53.074;8.822;2022-12-20T11:14:30;7.50;;;6.80;;
6757;SDS011;3416;53.074;8.822;2022-12-20T11:16:59;7.70;;;5.10;;
6757;SDS011;3416;53.074;8.822;2022-12-20T11:19:43;5.65;;;4.85;;
6757;SDS011;3416;53.074;8.822;2022-12-20T11:22:36;4.90;;;3.55;;
6757;SDS011;3416;53.074;8.822;2022-12-20T11:25:17;5.22;;;3.75;;
6757;SDS011;3416;53.074;8.822;2022-12-20T11:27:58;7.22;;;4.38;;
6757;SDS011;3416;53.074;8.822;2022-12-20T11:30:57;5.32;;;3.85;;
6757;SDS011;3416;53.074;8.822;2022-12-20T11:33:35;5.18;;;4.70;;
6757;SDS011;3416;53.074;8.822;2022-12-20T11:36:20;4.53;;;3.90;;
6757;SDS011;3416;53.074;8.822;2022-12-20T11:38:56;10.95;;;4.63;;
6757;SDS011;3416;53.074;8.822;2022-12-20T11:41:31;6.95;;;4.60;;
6757;SDS011;3416;53.074;8.822;2022-12-20T11:44:08;6.18;;;3.92;;
6757;SDS011;3416;53.074;8.822;2022-12-20T11:46:50;5.78;;;3.83;;
6757;SDS011;3416;53.074;8.822;2022-12-20T11:49:36;6.88;;;4.57;;
6757;SDS011;3416;53.074;8.822;2022-12-20T11:52:24;5.75;;;4.18;;
6757;SDS011;3416;53.074;8.822;2022-12-20T11:55:05;6.10;;;4.28;;
6757;SDS011;3416;53.074;8.822;2022-12-20T11:57:45;8.25;;;4.53;;
6757;SDS011;3416;53.074;8.822;2022-12-20T12:00:20;8.80;;;5.50;;
6757;SDS011;3416;53.074;8.822;2022-12-20T12:02:50;6.25;;;4.22;;
6757;SDS011;3416;53.074;8.822;2022-12-20T12:05:22;10.13;;;5.50;;
6757;SDS011;3416;53.074;8.822;2022-12-20T12:07:55;8.45;;;4.13;;
6757;SDS011;3416;53.074;8.822;2022-12-20T12:10:28;6.55;;;4.50;;
6757;SDS011;3416;53.074;8.822;2022-12-20T12:13:00;10.68;;;5.78;;
6757;SDS011;3416;53.074;8.822;2022-12-20T12:15:33;8.10;;;5.35;;
6757;SDS011;3416;53.074;8.822;2022-12-20T12:18:06;6.13;;;4.85;;
6757;SDS011;3416;53.074;8.822;2022-12-20T12:20:39;6.43;;;5.07;;
6757;SDS011;3416;53.074;8.822;2022-12-20T12:23:15;11.57;;;5.30;;
6757;SDS011;3416;53.074;8.822;2022-12-20T12:25:50;6.00;;;5.15;;
6757;SDS011;3416;53.074;8.822;2022-12-20T12:28:18;5.30;;;4.57;;
6757;SDS011;3416;53.074;8.822;2022-12-20T12:30:47;5.70;;;5.05;;
6757;SDS011;3416;53.074;8.822;2022-12-20T12:33:19;5.00;;;4.55;;
6757;SDS011;3416;53.074;8.822;2022-12-20T12:39:07;11.13;;;5.25;;
6757;SDS011;3416;53.074;8.822;2022-12-20T12:41:59;5.13;;;4.60;;
6757;SDS011;3416;53.074;8.822;2022-12-20T12:44:39;14.13;;;5.40;;
6757;SDS011;3416;53.074;8.822;2022-12-20T12:47:14;7.32;;;6.20;;
6757;SDS011;3416;53.074;8.822;2022-12-20T12:49:53;6.25;;;5.22;;
6757;SDS011;3416;53.074;8.822;2022-12-20T12:52:44;7.85;;;5.68;;
6757;SDS011;3416;53.074;8.822;2022-12-20T12:58:21;6.20;;;5.45;;
6757;SDS011;3416;53.074;8.822;2022-12-20T13:01:00;6.30;;;4.57;;
6757;SDS011;3416;53.074;8.822;2022-12-20T13:03:43;6.28;;;4.85;;
6757;SDS011;3416;53.074;8.822;2022-12-20T13:06:53;7.97;;;4.88;;
6757;SDS011;3416;53.074;8.822;2022-12-20T13:09:34;5.40;;;4.90;;
6757;SDS011;3416;53.074;8.822;2022-12-20T13:18:31;7.53;;;5.00;;
6757;SDS011;3416;53.074;8.822;2022-12-20T13:27:20;6.38;;;4.95;;
6757;SDS011;3416;53.074;8.822;2022-12-20T13:29:57;11.73;;;6.18;;
6757;SDS011;3416;53.074;8.822;2022-12-20T13:32:53;8.60;;;5.95;;
6757;SDS011;3416;53.074;8.822;2022-12-20T13:35:58;6.55;;;5.63;;
6757;SDS011;3416;53.074;8.822;2022-12-20T13:41:35;12.20;;;6.30;;
6757;SDS011;3416;53.074;8.822;2022-12-20T13:44:18;9.00;;;6.75;;
6757;SDS011;3416;53.074;8.822;2022-12-20T13:47:01;11.27;;;6.80;;
6757;SDS011;3416;53.074;8.822;2022-12-20T13:49:33;7.60;;;6.88;;
6757;SDS011;3416;53.074;8.822;2022-12-20T13:52:11;9.32;;;6.80;;
6757;SDS011;3416;53.074;8.822;2022-12-20T13:54:45;12.57;;;7.50;;
6757;SDS011;3416;53.074;8.822;2022-12-20T13:57:15;10.02;;;7.00;;
6757;SDS011;3416;53.074;8.822;2022-12-20T13:59:47;12.27;;;8.10;;
6757;SDS011;3416;53.074;8.822;2022-12-20T14:02:18;8.65;;;5.80;;
6757;SDS011;3416;53.074;8.822;2022-12-20T14:04:51;11.23;;;7.80;;
6757;SDS011;3416;53.074;8.822;2022-12-20T14:07:23;10.38;;;7.60;;
6757;SDS011;3416;53.074;8.822;2022-12-20T14:09:56;7.15;;;6.10;;
6757;SDS011;3416;53.074;8.822;2022-12-20T14:12:26;9.00;;;6.80;;
6757;SDS011;3416;53.074;8.822;2022-12-20T14:14:55;12.35;;;6.55;;
6757;SDS011;3416;53.074;8.822;2022-12-20T14:17:23;13.93;;;7.18;;
6757;SDS011;3416;53.074;8.822;2022-12-20T14:20:12;10.88;;;6.63;;
6757;SDS011;3416;53.074;8.822;2022-12-20T14:22:41;6.45;;;5.80;;
6757;SDS011;3416;53.074;8.822;2022-12-20T14:25:16;8.07;;;6.43;;
6757;SDS011;3416;53.074;8.822;2022-12-20T14:27:48;7.90;;;6.50;;
6757;SDS011;3416;53.074;8.822;2022-12-20T14:30:24;7.40;;;6.35;;
6757;SDS011;3416;53.074;8.822;2022-12-20T14:32:53;11.68;;;6.95;;
6757;SDS011;3416;53.074;8.822;2022-12-20T14:35:21;9.00;;;7.38;;
6757;SDS011;3416;53.074;8.822;2022-12-20T14:37:51;10.10;;;7.45;;
6757;SDS011;3416;53.074;8.822;2022-12-20T14:40:20;10.40;;;7.30;;
6757;SDS011;3416;53.074;8.822;2022-12-20T14:42:49;7.43;;;6.65;;
6757;SDS011;3416;53.074;8.822;2022-12-20T14:45:17;6.80;;;5.68;;
6757;SDS011;3416;53.074;8.822;2022-12-20T14:47:48;8.35;;;5.22;;
6757;SDS011;3416;53.074;8.822;2022-12-20T14:50:28;6.13;;;5.50;;
6757;SDS011;3416;53.074;8.822;2022-12-20T14:52:56;7.75;;;4.97;;
6757;SDS011;3416;53.074;8.822;2022-12-20T14:55:25;6.10;;;5.47;;
6757;SDS011;3416;53.074;8.822;2022-12-20T14:57:58;6.47;;;5.85;;
6757;SDS011;3416;53.074;8.822;2022-12-20T15:00:26;8.02;;;6.70;;
6757;SDS011;3416;53.074;8.822;2022-12-20T15:03:00;10.32;;;7.10;;
6757;SDS011;3416;53.074;8.822;2022-12-20T15:08:39;9.45;;;6.35;;
6757;SDS011;3416;53.074;8.822;2022-12-20T15:11:36;8.35;;;6.18;;
6757;SDS011;3416;53.074;8.822;2022-12-20T15:14:41;10.82;;;7.45;;
6757;SDS011;3416;53.074;8.822;2022-12-20T15:17:29;8.30;;;5.20;;
6757;SDS011;3416;53.074;8.822;2022-12-20T15:24:20;8.57;;;7.00;;
6757;SDS011;3416;53.074;8.822;2022-12-20T15:26:57;7.43;;;5.65;;
6757;SDS011;3416;53.074;8.822;2022-12-20T15:29:26;5.85;;;5.18;;
6757;SDS011;3416;53.074;8.822;2022-12-20T15:31:57;6.40;;;5.15;;
6757;SDS011;3416;53.074;8.822;2022-12-20T15:34:36;10.32;;;8.60;;
6757;SDS011;3416;53.074;8.822;2022-12-20T15:37:04;9.88;;;5.30;;
6757;SDS011;3416;53.074;8.822;2022-12-20T15:39:35;5.85;;;5.35;;
6757;SDS011;3416;53.074;8.822;2022-12-20T15:42:02;13.80;;;6.63;;
6757;SDS011;3416;53.074;8.822;2022-12-20T15:44:30;7.97;;;5.95;;
6757;SDS011;3416;53.074;8.822;2022-12-20T15:47:01;16.13;;;7.32;;
6757;SDS011;3416;53.074;8.822;2022-12-20T15:49:28;8.88;;;6.68;;
6757;SDS011;3416;53.074;8.822;2022-12-20T15:51:57;7.50;;;6.80;;
6757;SDS011;3416;53.074;8.822;2022-12-20T15:54:26;8.20;;;5.38;;
6757;SDS011;3416;53.074;8.822;2022-12-20T15:57:02;10.82;;;7.90;;
6757;SDS011;3416;53.074;8.822;2022-12-20T16:03:11;7.25;;;5.65;;
6757;SDS011;3416;53.074;8.822;2022-12-20T16:05:57;8.55;;;6.25;;
6757;SDS011;3416;53.074;8.822;2022-12-20T16:08:59;12.13;;;7.13;;
6757;SDS011;3416;53.074;8.822;2022-12-20T16:11:27;8.20;;;7.05;;
6757;SDS011;3416;53.074;8.822;2022-12-20T16:14:24;8.27;;;6.45;;
6757;SDS011;3416;53.074;8.822;2022-12-20T16:16:54;10.98;;;7.43;;
6757;SDS011;3416;53.074;8.822;2022-12-20T16:20:15;6.72;;;6.07;;
6757;SDS011;3416;53.074;8.822;2022-12-20T16:24:15;7.22;;;6.45;;
6757;SDS011;3416;53.074;8.822;2022-12-20T16:26:38;10.73;;;7.45;;